Share

Alice Town, Bahamas

IBIMINIA2 Elev 0 ft | 25.73 °N, 79.30 °W | Change Station

Current weather conditions updated 12 minutes ago

Partly Cloudy
Partly Cloudy
77.7 °F
Feels Like 80 °F
N
11.0
Wind Variable Wind from WNW
Sunrise 6:50 AM
Sunset 7:42 PM
Moon Waning Gibbous

Tomorrow is forecast to be Much Cooler than today.

Pressure 29.94 in
Visibility 10.0 miles
Clouds Few 4300 ft
Heat Index 80 °F
Dew Point 69 °F
Humidity 75%
Rainfall 1.94 in
Snow Depth Not available.
UV 0 out of 16
Pollen Not available.
Air Quality Not available.
Flu Activity Not available.
METAR KFLL 200053Z 29008KT 10SM FEW043 24/16 A2994 RMK AO2 SLP139 T02390161

More Conditions Fewer Conditions

Pressure 29.94 in
Visibility 10.0 miles
Clouds Few 4300 ft
Heat Index 80 °F
Dew Point 69 °F
Humidity 75%
Rainfall 1.94 in
Snow Depth Not available.
UV 0 out of 16
Pollen Not available.
Air Quality Not available.
Flu Activity Not available.
METAR KFLL 200053Z 29008KT 10SM FEW043 24/16 A2994 RMK AO2 SLP139 T02390161

More Conditions Fewer Conditions

10-Day Weather Forecast

Almanac

Astronomy

Apr. 19, 2014 Rise Set
Actual Time 6:50 AM EDT 7:42 PM EDT
Civil Twilight 6:26 AM EDT 8:06 PM EDT
Nautical Twilight 5:59 AM EDT 8:33 PM EDT
Astronomical Twilight 5:30 AM EDT 9:02 PM EDT
Moon No Moon Rise 10:20 AM EDT (4/19)
Length of Visible Light 13h 39m
Length of Day
12h 51m
Tomorrow will be 1m 23s longer.
Waning Gibbous, 75% of the Moon is Illuminated
Today
Waning Gibbous
Apr 22
Last Quarter
Apr 29
New
May 6
First Quarter
May 14
Full

Today's Extremes

Country Highs Country Lows

Community

  • Cherry Blossoms
    Cherry Blossoms
  • White-Crowned Sparrow
    White-Crowned Sparrow
  • New Day
    New Day
  • Happy Easter!
    Happy Easter!
  • poppy bloom near Mazar-e-Sharif
    poppy bloom near Mazar-e-Sharif

WunderPhotos

Upload Photos

1,703,027 photos uploaded!

WunderBlogs® & News

By Dr. Jeff Masters
Director of Meteorology, Weather Underground
By Kari Strenfel
Meteorologist, Weather Underground
By Christopher C. Burt
Weather Historian, Weather Underground
April 19, 2014
April 19, 2014
April 19, 2014

Nearby

Snow Depth

Not available.

Coastal Water Temperatures

Place Temperature
No Stations Reporting

Earthquake Activity

City Distance Mag. Time & Date
No recent earthquake activity has been reported nearby.
Minimum magnitude displayed is 2.5.

Nearby Weather Stations

Station Location Temp. Heat Index Dew Point Humidity Wind Precip. Elev Updated Type
Alice Town 77.7 °F 80 °F 69 °F 75% WNW  at  11.0 mph - / hr 0 ft 9:42 PM EDT Normal

Show More Stations Show Fewer Stations

What do you think?

We're not finished. Please let us know what you like, what you don't like, and what you are still missing.